sensor_id;sensor_type;location;lat;lon;timestamp;pressure;altitude;pressure_sealevel;temperature;humidity
25130;BME280;13308;50.860;13.664;2023-05-01T06:05:45;96871.81;;;7.44;100.00
25130;BME280;13308;50.860;13.664;2023-05-01T06:08:11;96876.44;;;7.75;100.00
25130;BME280;13308;50.860;13.664;2023-05-01T06:10:38;96870.03;;;7.99;100.00
25130;BME280;13308;50.860;13.664;2023-05-01T06:13:05;96873.81;;;8.26;100.00
25130;BME280;13308;50.860;13.664;2023-05-01T06:15:35;96874.56;;;8.37;100.00
25130;BME280;13308;50.860;13.664;2023-05-01T06:18:01;96865.38;;;8.57;100.00
25130;BME280;13308;50.860;13.664;2023-05-01T06:20:27;96872.31;;;8.75;100.00
25130;BME280;13308;50.860;13.664;2023-05-01T06:22:54;96877.34;;;8.80;100.00
25130;BME280;13308;50.860;13.664;2023-05-01T06:25:22;96877.28;;;8.91;99.94
25130;BME280;13308;50.860;13.664;2023-05-01T06:27:49;96865.06;;;9.36;96.91
25130;BME280;13308;50.860;13.664;2023-05-01T06:30:18;96869.63;;;9.49;98.21
25130;BME280;13308;50.860;13.664;2023-05-01T06:32:44;96872.53;;;10.06;87.25
25130;BME280;13308;50.860;13.664;2023-05-01T06:35:11;96876.63;;;11.00;74.53
25130;BME280;13308;50.860;13.664;2023-05-01T06:37:37;96880.94;;;11.90;65.12
25130;BME280;13308;50.860;13.664;2023-05-01T06:40:06;96875.72;;;12.82;58.29
25130;BME280;13308;50.860;13.664;2023-05-01T06:42:32;96886.63;;;13.53;55.73
25130;BME280;13308;50.860;13.664;2023-05-01T06:45:00;96887.50;;;13.50;54.76
25130;BME280;13308;50.860;13.664;2023-05-01T06:47:26;96885.19;;;15.09;50.82
25130;BME280;13308;50.860;13.664;2023-05-01T06:49:52;96888.13;;;16.20;48.26
25130;BME280;13308;50.860;13.664;2023-05-01T06:52:17;96887.47;;;16.16;47.39
25130;BME280;13308;50.860;13.664;2023-05-01T06:54:42;96896.47;;;17.42;44.20
25130;BME280;13308;50.860;13.664;2023-05-01T06:57:07;96892.78;;;17.54;46.66
25130;BME280;13308;50.860;13.664;2023-05-01T06:59:33;96891.09;;;17.57;45.21
25130;BME280;13308;50.860;13.664;2023-05-01T07:01:58;96896.56;;;18.05;42.81
25130;BME280;13308;50.860;13.664;2023-05-01T07:04:23;96895.22;;;18.87;40.32
25130;BME280;13308;50.860;13.664;2023-05-01T07:06:49;96881.31;;;18.60;39.55
25130;BME280;13308;50.860;13.664;2023-05-01T07:09:14;96882.28;;;18.30;40.66
25130;BME280;13308;50.860;13.664;2023-05-01T07:11:40;96885.81;;;19.08;38.97
25130;BME280;13308;50.860;13.664;2023-05-01T07:14:06;96879.03;;;19.00;39.74
25130;BME280;13308;50.860;13.664;2023-05-01T07:16:32;96880.16;;;19.26;38.63
25130;BME280;13308;50.860;13.664;2023-05-01T07:18:57;96888.09;;;19.27;39.42
25130;BME280;13308;50.860;13.664;2023-05-01T07:21:22;96883.81;;;19.64;38.63
25130;BME280;13308;50.860;13.664;2023-05-01T07:23:47;96884.13;;;19.43;38.24
25130;BME280;13308;50.860;13.664;2023-05-01T07:26:13;96893.03;;;19.33;38.42
25130;BME280;13308;50.860;13.664;2023-05-01T07:28:38;96876.97;;;19.42;39.79
25130;BME280;13308;50.860;13.664;2023-05-01T07:31:04;96881.78;;;19.41;38.35
25130;BME280;13308;50.860;13.664;2023-05-01T07:33:29;96878.34;;;19.93;38.02
25130;BME280;13308;50.860;13.664;2023-05-01T07:35:55;96885.38;;;20.27;36.07
25130;BME280;13308;50.860;13.664;2023-05-01T07:38:20;96874.34;;;19.38;37.71
25130;BME280;13308;50.860;13.664;2023-05-01T07:40:46;96871.53;;;19.06;39.40
25130;BME280;13308;50.860;13.664;2023-05-01T07:43:11;96874.50;;;18.52;39.53
25130;BME280;13308;50.860;13.664;2023-05-01T07:45:37;96879.19;;;18.46;39.54
25130;BME280;13308;50.860;13.664;2023-05-01T07:48:03;96874.00;;;19.04;40.14
25130;BME280;13308;50.860;13.664;2023-05-01T07:50:29;96875.97;;;18.80;38.38
25130;BME280;13308;50.860;13.664;2023-05-01T07:52:55;96868.81;;;18.88;38.86
25130;BME280;13308;50.860;13.664;2023-05-01T07:55:21;96874.34;;;18.97;37.73
25130;BME280;13308;50.860;13.664;2023-05-01T07:57:47;96874.97;;;19.01;38.36
25130;BME280;13308;50.860;13.664;2023-05-01T08:00:12;96879.22;;;19.29;38.03
25130;BME280;13308;50.860;13.664;2023-05-01T08:02:38;96875.34;;;18.85;39.66
25130;BME280;13308;50.860;13.664;2023-05-01T08:05:05;96870.38;;;18.80;38.45
25130;BME280;13308;50.860;13.664;2023-05-01T08:07:30;96872.31;;;18.65;38.20
25130;BME280;13308;50.860;13.664;2023-05-01T08:09:55;96869.00;;;18.76;39.12
25130;BME280;13308;50.860;13.664;2023-05-01T08:12:21;96871.28;;;17.91;40.67
25130;BME280;13308;50.860;13.664;2023-05-01T08:14:46;96869.28;;;17.91;40.82
25130;BME280;13308;50.860;13.664;2023-05-01T08:17:11;96864.19;;;18.76;39.29
25130;BME280;13308;50.860;13.664;2023-05-01T08:19:37;96867.22;;;18.28;41.17
25130;BME280;13308;50.860;13.664;2023-05-01T08:22:02;96863.25;;;18.79;40.87
25130;BME280;13308;50.860;13.664;2023-05-01T08:24:28;96860.97;;;19.66;40.92
25130;BME280;13308;50.860;13.664;2023-05-01T08:26:54;96861.53;;;19.14;39.43
25130;BME280;13308;50.860;13.664;2023-05-01T08:29:19;96869.59;;;19.30;40.09
25130;BME280;13308;50.860;13.664;2023-05-01T08:31:44;96865.81;;;19.33;42.77
25130;BME280;13308;50.860;13.664;2023-05-01T08:34:10;96865.72;;;19.74;40.72
25130;BME280;13308;50.860;13.664;2023-05-01T08:36:35;96863.56;;;19.69;38.38
25130;BME280;13308;50.860;13.664;2023-05-01T08:39:00;96871.09;;;18.98;40.55
25130;BME280;13308;50.860;13.664;2023-05-01T08:41:26;96866.31;;;18.13;41.77
25130;BME280;13308;50.860;13.664;2023-05-01T08:43:55;96872.59;;;18.76;42.29
25130;BME280;13308;50.860;13.664;2023-05-01T08:46:43;96869.28;;;19.19;40.59
25130;BME280;13308;50.860;13.664;2023-05-01T08:49:11;96871.56;;;19.38;40.51
25130;BME280;13308;50.860;13.664;2023-05-01T08:51:38;96864.59;;;19.34;39.35
25130;BME280;13308;50.860;13.664;2023-05-01T08:54:06;96863.91;;;18.65;40.07
25130;BME280;13308;50.860;13.664;2023-05-01T08:56:34;96868.47;;;18.45;40.54
25130;BME280;13308;50.860;13.664;2023-05-01T08:59:03;96862.63;;;18.84;40.85
25130;BME280;13308;50.860;13.664;2023-05-01T09:01:29;96857.81;;;18.76;40.53
25130;BME280;13308;50.860;13.664;2023-05-01T09:03:57;96858.53;;;18.94;43.49
25130;BME280;13308;50.860;13.664;2023-05-01T09:06:22;96865.88;;;19.24;42.95
25130;BME280;13308;50.860;13.664;2023-05-01T09:08:47;96863.38;;;19.26;44.69
25130;BME280;13308;50.860;13.664;2023-05-01T09:11:13;96862.88;;;18.95;39.59
25130;BME280;13308;50.860;13.664;2023-05-01T09:13:38;96843.56;;;18.65;40.33
25130;BME280;13308;50.860;13.664;2023-05-01T09:16:04;96853.38;;;19.02;40.37
25130;BME280;13308;50.860;13.664;2023-05-01T09:18:30;96852.03;;;18.11;42.55
25130;BME280;13308;50.860;13.664;2023-05-01T09:20:56;96837.34;;;17.92;42.87
25130;BME280;13308;50.860;13.664;2023-05-01T09:23:22;96838.09;;;18.11;42.62
25130;BME280;13308;50.860;13.664;2023-05-01T09:25:47;96831.00;;;17.83;42.19
25130;BME280;13308;50.860;13.664;2023-05-01T09:28:14;96827.03;;;18.43;43.40
25130;BME280;13308;50.860;13.664;2023-05-01T09:30:39;96835.19;;;19.06;45.22
25130;BME280;13308;50.860;13.664;2023-05-01T09:35:54;96828.75;;;19.47;40.91
25130;BME280;13308;50.860;13.664;2023-05-01T09:38:24;96831.25;;;19.12;42.02
25130;BME280;13308;50.860;13.664;2023-05-01T09:40:52;96824.28;;;18.76;40.80
25130;BME280;13308;50.860;13.664;2023-05-01T09:43:25;96825.59;;;18.57;42.62
25130;BME280;13308;50.860;13.664;2023-05-01T09:46:05;96814.94;;;18.37;42.11
25130;BME280;13308;50.860;13.664;2023-05-01T09:48:33;96817.19;;;17.70;43.81
25130;BME280;13308;50.860;13.664;2023-05-01T09:50:58;96816.88;;;17.50;42.36
25130;BME280;13308;50.860;13.664;2023-05-01T09:57:34;96807.69;;;18.04;46.46
25130;BME280;13308;50.860;13.664;2023-05-01T10:00:02;96802.47;;;18.98;42.12
25130;BME280;13308;50.860;13.664;2023-05-01T10:02:32;96788.78;;;18.67;41.96
25130;BME280;13308;50.860;13.664;2023-05-01T10:04:58;96791.78;;;19.81;45.18
25130;BME280;13308;50.860;13.664;2023-05-01T10:07:24;96797.19;;;20.22;41.61
25130;BME280;13308;50.860;13.664;2023-05-01T10:09:50;96796.13;;;20.49;43.32
25130;BME280;13308;50.860;13.664;2023-05-01T10:12:26;96788.81;;;19.99;39.33
25130;BME280;13308;50.860;13.664;2023-05-01T10:14:56;96790.09;;;19.98;39.44
25130;BME280;13308;50.860;13.664;2023-05-01T10:17:22;96783.94;;;20.23;45.05
25130;BME280;13308;50.860;13.664;2023-05-01T10:19:48;96783.59;;;20.30;41.42
25130;BME280;13308;50.860;13.664;2023-05-01T10:22:14;96783.75;;;20.41;38.77
25130;BME280;13308;50.860;13.664;2023-05-01T10:24:40;96772.47;;;20.21;40.54
25130;BME280;13308;50.860;13.664;2023-05-01T10:27:06;96767.06;;;20.81;42.94
25130;BME280;13308;50.860;13.664;2023-05-01T10:29:34;96778.88;;;20.85;37.50
25130;BME280;13308;50.860;13.664;2023-05-01T10:32:01;96778.13;;;21.39;40.80
25130;BME280;13308;50.860;13.664;2023-05-01T10:34:29;96779.25;;;21.07;39.35
25130;BME280;13308;50.860;13.664;2023-05-01T10:36:59;96773.63;;;21.27;38.16
25130;BME280;13308;50.860;13.664;2023-05-01T10:39:34;96771.94;;;20.66;37.69
25130;BME280;13308;50.860;13.664;2023-05-01T10:42:07;96765.53;;;20.94;41.52
25130;BME280;13308;50.860;13.664;2023-05-01T10:44:35;96765.22;;;21.27;42.01
25130;BME280;13308;50.860;13.664;2023-05-01T10:50:08;96743.25;;;19.32;40.16
25130;BME280;13308;50.860;13.664;2023-05-01T10:55:42;96736.72;;;19.02;41.21
25130;BME280;13308;50.860;13.664;2023-05-01T11:01:33;96729.09;;;20.31;38.41
25130;BME280;13308;50.860;13.664;2023-05-01T11:09:44;96723.13;;;21.47;40.16
25130;BME280;13308;50.860;13.664;2023-05-01T11:12:12;96725.81;;;20.81;38.92
25130;BME280;13308;50.860;13.664;2023-05-01T11:20:08;96707.38;;;20.11;39.59
25130;BME280;13308;50.860;13.664;2023-05-01T11:22:34;96716.13;;;20.48;38.77
25130;BME280;13308;50.860;13.664;2023-05-01T11:25:01;96701.63;;;20.35;37.43
25130;BME280;13308;50.860;13.664;2023-05-01T11:27:29;96707.69;;;20.97;39.33
25130;BME280;13308;50.860;13.664;2023-05-01T11:29:57;96704.94;;;20.33;37.70
25130;BME280;13308;50.860;13.664;2023-05-01T11:32:26;96697.28;;;20.83;38.94
25130;BME280;13308;50.860;13.664;2023-05-01T11:34:52;96698.38;;;21.25;39.57
25130;BME280;13308;50.860;13.664;2023-05-01T11:37:19;96685.22;;;21.57;40.25
25130;BME280;13308;50.860;13.664;2023-05-01T11:39:51;96692.13;;;22.07;41.55
25130;BME280;13308;50.860;13.664;2023-05-01T11:42:20;96689.84;;;22.42;39.40
25130;BME280;13308;50.860;13.664;2023-05-01T11:45:08;96686.34;;;22.47;35.03
25130;BME280;13308;50.860;13.664;2023-05-01T11:47:37;96667.56;;;22.33;38.27
25130;BME280;13308;50.860;13.664;2023-05-01T11:50:06;96670.03;;;22.20;39.66
25130;BME280;13308;50.860;13.664;2023-05-01T11:52:46;96662.72;;;21.77;42.87
25130;BME280;13308;50.860;13.664;2023-05-01T11:55:13;96657.03;;;20.86;36.90
25130;BME280;13308;50.860;13.664;2023-05-01T11:57:52;96658.34;;;21.70;40.87
25130;BME280;13308;50.860;13.664;2023-05-01T12:00:28;96650.09;;;21.92;37.88
25130;BME280;13308;50.860;13.664;2023-05-01T12:03:00;96640.81;;;21.81;38.44
25130;BME280;13308;50.860;13.664;2023-05-01T12:05:27;96633.75;;;22.53;41.62
25130;BME280;13308;50.860;13.664;2023-05-01T12:08:14;96636.66;;;23.17;37.96
25130;BME280;13308;50.860;13.664;2023-05-01T12:10:43;96633.19;;;23.55;39.81
25130;BME280;13308;50.860;13.664;2023-05-01T12:13:11;96628.13;;;23.92;39.08
25130;BME280;13308;50.860;13.664;2023-05-01T12:15:40;96631.22;;;24.49;38.42
25130;BME280;13308;50.860;13.664;2023-05-01T12:18:06;96617.13;;;24.32;38.91
25130;BME280;13308;50.860;13.664;2023-05-01T12:23:02;96609.56;;;25.01;38.57
25130;BME280;13308;50.860;13.664;2023-05-01T12:25:29;96607.44;;;25.18;38.78
25130;BME280;13308;50.860;13.664;2023-05-01T12:27:56;96611.63;;;25.52;39.35
25130;BME280;13308;50.860;13.664;2023-05-01T12:30:25;96616.19;;;25.66;36.65
25130;BME280;13308;50.860;13.664;2023-05-01T12:32:51;96610.28;;;26.34;33.63
25130;BME280;13308;50.860;13.664;2023-05-01T12:35:16;96602.09;;;26.01;34.32
25130;BME280;13308;50.860;13.664;2023-05-01T12:37:42;96603.84;;;26.04;37.57
25130;BME280;13308;50.860;13.664;2023-05-01T12:40:16;96607.91;;;26.14;37.22
25130;BME280;13308;50.860;13.664;2023-05-01T12:42:43;96597.50;;;25.52;35.15
25130;BME280;13308;50.860;13.664;2023-05-01T12:45:09;96593.88;;;25.57;35.16
25130;BME280;13308;50.860;13.664;2023-05-01T12:47:36;96596.84;;;24.45;35.56
25130;BME280;13308;50.860;13.664;2023-05-01T12:50:02;96591.03;;;25.11;35.01
25130;BME280;13308;50.860;13.664;2023-05-01T12:52:28;96596.91;;;25.24;32.34
25130;BME280;13308;50.860;13.664;2023-05-01T12:55:01;96594.19;;;24.91;32.48
25130;BME280;13308;50.860;13.664;2023-05-01T12:57:27;96597.38;;;25.28;34.79
25130;BME280;13308;50.860;13.664;2023-05-01T12:59:58;96591.59;;;24.98;32.33
25130;BME280;13308;50.860;13.664;2023-05-01T13:02:29;96584.19;;;25.47;37.86
25130;BME280;13308;50.860;13.664;2023-05-01T13:05:06;96579.78;;;26.51;34.65
25130;BME280;13308;50.860;13.664;2023-05-01T13:07:32;96587.81;;;26.71;34.35
25130;BME280;13308;50.860;13.664;2023-05-01T13:09:58;96593.31;;;27.30;30.00
25130;BME280;13308;50.860;13.664;2023-05-01T13:12:24;96572.03;;;26.57;33.85
25130;BME280;13308;50.860;13.664;2023-05-01T13:14:51;96573.91;;;26.73;32.20
25130;BME280;13308;50.860;13.664;2023-05-01T13:17:28;96577.16;;;26.58;32.93
25130;BME280;13308;50.860;13.664;2023-05-01T13:19:54;96575.41;;;26.50;31.06
25130;BME280;13308;50.860;13.664;2023-05-01T13:22:33;96572.53;;;26.02;30.88
25130;BME280;13308;50.860;13.664;2023-05-01T13:25:00;96578.84;;;26.43;30.95
25130;BME280;13308;50.860;13.664;2023-05-01T13:27:27;96571.13;;;25.79;31.96
25130;BME280;13308;50.860;13.664;2023-05-01T13:29:53;96570.06;;;25.82;30.56
25130;BME280;13308;50.860;13.664;2023-05-01T13:32:23;96568.31;;;25.79;33.29
25130;BME280;13308;50.860;13.664;2023-05-01T13:34:49;96567.50;;;26.19;30.81
25130;BME280;13308;50.860;13.664;2023-05-01T13:37:15;96567.53;;;24.81;30.83
25130;BME280;13308;50.860;13.664;2023-05-01T13:39:41;96565.63;;;23.66;32.03
25130;BME280;13308;50.860;13.664;2023-05-01T13:42:07;96560.44;;;23.26;33.13
25130;BME280;13308;50.860;13.664;2023-05-01T13:44:42;96566.66;;;24.18;33.58
25130;BME280;13308;50.860;13.664;2023-05-01T13:47:10;96568.09;;;24.74;32.10
25130;BME280;13308;50.860;13.664;2023-05-01T13:49:40;96566.19;;;25.50;31.64
25130;BME280;13308;50.860;13.664;2023-05-01T13:52:06;96561.22;;;26.02;32.52
25130;BME280;13308;50.860;13.664;2023-05-01T13:54:31;96561.38;;;26.87;32.84
25130;BME280;13308;50.860;13.664;2023-05-01T13:56:59;96567.44;;;26.48;30.98
25130;BME280;13308;50.860;13.664;2023-05-01T13:59:37;96563.84;;;25.94;32.52
25130;BME280;13308;50.860;13.664;2023-05-01T14:02:19;96561.03;;;25.08;32.35
25130;BME280;13308;50.860;13.664;2023-05-01T14:04:45;96550.75;;;25.91;32.30
25130;BME280;13308;50.860;13.664;2023-05-01T14:07:15;96553.81;;;26.23;31.16
25130;BME280;13308;50.860;13.664;2023-05-01T14:09:42;96550.59;;;24.81;32.41
25130;BME280;13308;50.860;13.664;2023-05-01T14:12:08;96552.69;;;26.31;31.63
25130;BME280;13308;50.860;13.664;2023-05-01T14:14:34;96549.75;;;27.33;31.48
25130;BME280;13308;50.860;13.664;2023-05-01T14:17:00;96556.28;;;25.73;31.22
25130;BME280;13308;50.860;13.664;2023-05-01T14:19:25;96540.09;;;25.38;32.08
25130;BME280;13308;50.860;13.664;2023-05-01T14:21:51;96534.31;;;24.41;32.70
25130;BME280;13308;50.860;13.664;2023-05-01T14:24:16;96537.47;;;23.99;33.06
25130;BME280;13308;50.860;13.664;2023-05-01T14:26:42;96531.56;;;23.97;35.93
25130;BME280;13308;50.860;13.664;2023-05-01T14:29:21;96522.94;;;24.74;33.80
25130;BME280;13308;50.860;13.664;2023-05-01T14:31:47;96524.28;;;25.13;33.90
25130;BME280;13308;50.860;13.664;2023-05-01T14:34:14;96527.09;;;25.94;33.56
25130;BME280;13308;50.860;13.664;2023-05-01T14:36:41;96518.69;;;25.48;35.01
25130;BME280;13308;50.860;13.664;2023-05-01T14:39:07;96515.72;;;24.84;33.65
25130;BME280;13308;50.860;13.664;2023-05-01T14:41:33;96509.41;;;25.13;34.05
25130;BME280;13308;50.860;13.664;2023-05-01T14:44:03;96511.72;;;24.57;34.96
25130;BME280;13308;50.860;13.664;2023-05-01T14:46:32;96510.75;;;23.12;36.01
25130;BME280;13308;50.860;13.664;2023-05-01T14:48:58;96505.50;;;22.72;36.26
25130;BME280;13308;50.860;13.664;2023-05-01T14:51:24;96502.28;;;21.33;38.35
25130;BME280;13308;50.860;13.664;2023-05-01T14:53:50;96501.94;;;21.51;39.17
25130;BME280;13308;50.860;13.664;2023-05-01T14:56:16;96505.06;;;21.58;38.54
25130;BME280;13308;50.860;13.664;2023-05-01T14:58:41;96504.13;;;21.10;39.05
25130;BME280;13308;50.860;13.664;2023-05-01T15:01:06;96496.69;;;20.62;40.25
25130;BME280;13308;50.860;13.664;2023-05-01T15:03:33;96500.50;;;20.59;39.68
25130;BME280;13308;50.860;13.664;2023-05-01T15:06:04;96489.13;;;20.28;41.75
25130;BME280;13308;50.860;13.664;2023-05-01T15:08:29;96493.41;;;19.89;41.90
25130;BME280;13308;50.860;13.664;2023-05-01T15:10:56;96489.56;;;19.52;42.58
25130;BME280;13308;50.860;13.664;2023-05-01T15:13:21;96495.31;;;19.63;42.80
25130;BME280;13308;50.860;13.664;2023-05-01T15:15:47;96491.28;;;19.06;43.07
25130;BME280;13308;50.860;13.664;2023-05-01T15:18:12;96490.16;;;19.27;43.36
25130;BME280;13308;50.860;13.664;2023-05-01T15:20:37;96494.97;;;19.41;42.80
25130;BME280;13308;50.860;13.664;2023-05-01T15:23:03;96489.53;;;18.80;44.87
25130;BME280;13308;50.860;13.664;2023-05-01T15:25:28;96484.31;;;18.58;44.94
25130;BME280;13308;50.860;13.664;2023-05-01T15:27:54;96492.28;;;18.27;45.88
25130;BME280;13308;50.860;13.664;2023-05-01T15:30:19;96485.81;;;18.45;45.33
25130;BME280;13308;50.860;13.664;2023-05-01T15:32:45;96484.84;;;18.24;44.89
25130;BME280;13308;50.860;13.664;2023-05-01T15:35:10;96482.84;;;18.48;45.29
25130;BME280;13308;50.860;13.664;2023-05-01T15:37:35;96487.75;;;18.53;45.07
25130;BME280;13308;50.860;13.664;2023-05-01T15:40:01;96483.50;;;18.43;45.06
25130;BME280;13308;50.860;13.664;2023-05-01T15:42:28;96485.75;;;18.30;46.29
25130;BME280;13308;50.860;13.664;2023-05-01T15:44:53;96474.94;;;18.23;47.16
25130;BME280;13308;50.860;13.664;2023-05-01T15:47:19;96476.81;;;18.64;45.93
25130;BME280;13308;50.860;13.664;2023-05-01T15:49:44;96472.47;;;18.63;48.12
25130;BME280;13308;50.860;13.664;2023-05-01T15:52:09;96478.25;;;18.74;46.88
25130;BME280;13308;50.860;13.664;2023-05-01T15:54:35;96474.22;;;18.90;45.25
25130;BME280;13308;50.860;13.664;2023-05-01T15:57:00;96476.22;;;18.60;47.12
25130;BME280;13308;50.860;13.664;2023-05-01T15:59:27;96464.09;;;18.63;45.90
25130;BME280;13308;50.860;13.664;2023-05-01T16:01:53;96469.25;;;18.41;46.25
25130;BME280;13308;50.860;13.664;2023-05-01T16:04:19;96465.81;;;18.61;46.27
25130;BME280;13308;50.860;13.664;2023-05-01T16:06:44;96463.38;;;18.39;48.33
25130;BME280;13308;50.860;13.664;2023-05-01T16:09:09;96467.22;;;18.42;47.55
25130;BME280;13308;50.860;13.664;2023-05-01T16:11:36;96461.75;;;18.47;46.52
25130;BME280;13308;50.860;13.664;2023-05-01T16:14:01;96468.56;;;18.32;46.12
25130;BME280;13308;50.860;13.664;2023-05-01T16:16:27;96460.59;;;18.39;46.25
25130;BME280;13308;50.860;13.664;2023-05-01T16:18:57;96461.91;;;18.20;47.35
25130;BME280;13308;50.860;13.664;2023-05-01T16:21:24;96459.56;;;18.04;47.74
25130;BME280;13308;50.860;13.664;2023-05-01T16:23:50;96461.53;;;17.89;49.38
25130;BME280;13308;50.860;13.664;2023-05-01T16:26:24;96459.38;;;17.84;49.77
25130;BME280;13308;50.860;13.664;2023-05-01T16:28:58;96458.50;;;17.78;50.30
25130;BME280;13308;50.860;13.664;2023-05-01T16:31:24;96449.47;;;17.60;50.79
25130;BME280;13308;50.860;13.664;2023-05-01T16:33:49;96455.56;;;17.49;52.10
25130;BME280;13308;50.860;13.664;2023-05-01T16:36:15;96455.56;;;17.49;50.91
25130;BME280;13308;50.860;13.664;2023-05-01T16:38:41;96456.69;;;17.43;53.02
25130;BME280;13308;50.860;13.664;2023-05-01T16:41:07;96446.28;;;17.43;54.42
25130;BME280;13308;50.860;13.664;2023-05-01T16:43:32;96451.59;;;17.32;55.78
25130;BME280;13308;50.860;13.664;2023-05-01T16:45:57;96446.94;;;17.29;55.83
25130;BME280;13308;50.860;13.664;2023-05-01T16:48:23;96442.22;;;17.12;58.06
25130;BME280;13308;50.860;13.664;2023-05-01T16:50:49;96438.38;;;17.09;59.46
25130;BME280;13308;50.860;13.664;2023-05-01T16:53:14;96448.91;;;17.05;58.10
25130;BME280;13308;50.860;13.664;2023-05-01T16:55:40;96438.44;;;16.82;61.97
25130;BME280;13308;50.860;13.664;2023-05-01T16:58:05;96440.59;;;16.87;60.51
25130;BME280;13308;50.860;13.664;2023-05-01T17:00:31;96442.81;;;16.65;61.71
25130;BME280;13308;50.860;13.664;2023-05-01T17:02:56;96441.31;;;16.55;61.17
25130;BME280;13308;50.860;13.664;2023-05-01T17:05:23;96435.44;;;16.44;64.41
25130;BME280;13308;50.860;13.664;2023-05-01T17:07:48;96431.72;;;16.38;63.86
25130;BME280;13308;50.860;13.664;2023-05-01T17:10:14;96440.97;;;16.35;66.54
25130;BME280;13308;50.860;13.664;2023-05-01T17:12:39;96440.38;;;16.13;69.50
25130;BME280;13308;50.860;13.664;2023-05-01T17:15:05;96432.94;;;16.01;73.44
25130;BME280;13308;50.860;13.664;2023-05-01T17:17:30;96441.28;;;15.92;71.11
25130;BME280;13308;50.860;13.664;2023-05-01T17:19:56;96438.50;;;15.92;73.30
25130;BME280;13308;50.860;13.664;2023-05-01T17:22:21;96437.41;;;15.90;73.71
25130;BME280;13308;50.860;13.664;2023-05-01T17:24:47;96433.69;;;15.75;72.54
25130;BME280;13308;50.860;13.664;2023-05-01T17:27:14;96442.16;;;15.62;71.47
25130;BME280;13308;50.860;13.664;2023-05-01T17:29:40;96438.28;;;15.51;72.78
25130;BME280;13308;50.860;13.664;2023-05-01T17:32:06;96435.75;;;15.35;75.32
25130;BME280;13308;50.860;13.664;2023-05-01T17:34:31;96437.06;;;15.21;75.55
25130;BME280;13308;50.860;13.664;2023-05-01T17:36:56;96439.69;;;15.16;75.58
25130;BME280;13308;50.860;13.664;2023-05-01T17:39:22;96442.56;;;15.03;77.06
25130;BME280;13308;50.860;13.664;2023-05-01T17:41:48;96437.28;;;14.96;78.93
25130;BME280;13308;50.860;13.664;2023-05-01T17:44:13;96438.06;;;14.97;80.43
25130;BME280;13308;50.860;13.664;2023-05-01T17:46:39;96435.38;;;14.84;79.43
25130;BME280;13308;50.860;13.664;2023-05-01T17:49:04;96442.22;;;14.71;79.20
25130;BME280;13308;50.860;13.664;2023-05-01T17:51:31;96442.50;;;14.64;79.46
25130;BME280;13308;50.860;13.664;2023-05-01T17:53:57;96433.66;;;14.56;79.28
25130;BME280;13308;50.860;13.664;2023-05-01T17:56:22;96438.13;;;14.54;80.00
25130;BME280;13308;50.860;13.664;2023-05-01T17:58:48;96432.84;;;14.47;80.48
25130;BME280;13308;50.860;13.664;2023-05-01T18:01:13;96435.75;;;14.43;80.08
25130;BME280;13308;50.860;13.664;2023-05-01T18:03:39;96436.06;;;14.24;81.60
25130;BME280;13308;50.860;13.664;2023-05-01T18:06:05;96435.75;;;14.09;83.02
25130;BME280;13308;50.860;13.664;2023-05-01T18:08:30;96431.56;;;14.05;83.31
25130;BME280;13308;50.860;13.664;2023-05-01T18:10:55;96429.38;;;14.00;83.53
25130;BME280;13308;50.860;13.664;2023-05-01T18:13:21;96436.94;;;13.99;83.18
